Stephen Simmons

Olheiro - Aston Villa
23 Abr 2028
Domingo
Processo

Personalidade

Adaptabilidade (10) Ambição (12) Controvérsia (8) Lealdade (18) Pressão (4) Profissionalismo (17) Espírito Esportivo (7) Temperamento (8)

Perfil

Estilo de Treinamento Democrático
Licença Nacional B
Determinação 7
Gestão de Pessoas 14
Motivação 12
Disciplina 10
Satisfação no Trabalho
100%
Fadiga
0%
Função Olheiro
Salário 42.8K p/s
Contrato 14.03.2030

Desempenho

Comportamento Bom
Eficácia do Treinamento
46%
Desenvolvimento do Jogador
30%
Prevenção de Lesões
60%
Implementação Tática
30%

Eventos Recentes

Participou de uma reunião de recrutamento 7d atrás
Participou de uma reunião de recrutamento 14d atrás
Participou de uma reunião de recrutamento 21d atrás
Participou de uma reunião de recrutamento 28d atrás
Participou de uma reunião de recrutamento 35d atrás
Participou de uma reunião de recrutamento 42d atrás
Participou de uma reunião de recrutamento 49d atrás
Participou de uma reunião de recrutamento 56d atrás

Monitorando agora

69
Jogador Clube Status Habilidade Confiança Observado Última observação Último voto
Mateus Mané Burnley Ativo 135 / 153 40% 4 31.12.2027 -
Josh Nichols Oldham Athletic Ativo 128 / 122 40% 1 31.12.2027 -
Ryan McAidoo Oldham Athletic Ativo 123 / 126 40% 1 31.12.2027 -
Richard Koné Queens Park Rangers Ativo 127 / 132 40% 2 30.05.2027 -
Kenan Yıldız Juventus Ativo 165 / 162 40% 6 30.05.2027 -
Romelle Donovan Brentford Ativo 129 / 134 40% 7 28.05.2027 -
Leo Castledine Middlesbrough Ativo 132 / 141 40% 6 28.05.2027 -
Stiven Shpendi Empoli Ativo 122 / 112 40% 4 28.05.2027 -
Bradley Barcola Liverpool Ativo 160 / 153 40% 1 28.05.2027 -
Ollie Scarles West Ham United Ativo 134 / 143 40% 4 25.05.2027 -
Mohamadou Kanté Crawley Town Ativo 125 / 115 40% 3 25.05.2027 -
Assane Diao Como Ativo 150 / 152 40% 5 25.05.2027 -
Benjamin Šeško Manchester United Ativo 147 / 160 40% 4 25.05.2027 -
Rocco Vata Watford Ativo 120 / 124 40% 1 25.05.2027 -
Othmane Maamma Watford Ativo 132 / 119 40% 5 22.05.2027 -
Jorrel Hato Chelsea Ativo 138 / 157 40% 3 22.05.2027 -
Morgan Rogers Chelsea Ativo 150 / 163 40% 4 21.05.2027 -
Gonzalo Fulham Ativo 137 / 146 40% 2 21.05.2027 -
Ethan Williams Peterborough United Ativo 121 / 110 40% 2 19.05.2027 -
Bazoumana Touré Newcastle United Ativo 137 / 147 40% 2 19.05.2027 -
Hugo Ekitiké Liverpool Ativo 173 / 164 40% 3 19.05.2027 -
Jan Bürger Northampton Town Ativo 113 / 123 40% 4 15.05.2027 -
Oscar Schwartau Norwich City Ativo 125 / 131 40% 2 14.05.2027 -
Abu Kamara Portsmouth Ativo 116 / 116 40% 5 13.05.2027 -
Moussa Yeo Swansea City Ativo 113 / 134 40% 2 10.05.2027 -
Marezi Portsmouth Ativo 122 / 130 40% 3 08.05.2027 -
Emanuel Emegha Chelsea Ativo 135 / 146 40% 4 05.05.2027 -
Harouna Djibirin Angers SCO Ativo 105 / 119 40% 1 05.05.2027 -
Josh King Newcastle United Negociando 132 / 135 40% 1 30.04.2027 -
Joe Gelhardt Hull City Ativo 139 / 124 40% 2 26.04.2027 -
Ilyas Ansah Hull City Ativo 131 / 134 40% 1 26.04.2027 -
Aidomo Emakhu Oxford United Ativo 113 / 124 40% 5 24.04.2027 -
Sam Bell Bristol City Ativo 130 / 123 40% 1 24.04.2027 -
Tommy Conway Middlesbrough Ativo 125 / 132 40% 1 21.04.2027 -
Malik Mothersille Stockport County Ativo 118 / 123 40% 1 21.04.2027 -
Giorgi Kvernadze Frosinone Ativo 130 / 122 40% 1 20.04.2027 -
David Romero Parma Ativo 125 / 129 40% 1 20.04.2027 -
Sindre Walle Egeli Udinese Ativo 137 / 136 40% 4 19.04.2027 -
Ryan Oné Sheffield United Ativo 106 / 128 40% 1 17.04.2027 -
Salvador Blopá Sporting CP Ativo 121 / 132 40% 1 17.04.2027 -
Kobbie Mainoo Manchester United Ativo 159 / 150 40% 3 11.04.2027 -
Fábio Carvalho Brentford Ativo 130 / 144 40% 2 09.04.2027 -
Mohamed-Ali Cho Hull City Rejeitado 140 / 128 40% 1 08.04.2027 Mais informações
Nestory Irankunda Watford Ativo 116 / 126 40% 3 03.04.2027 -
Kirill Glebov CSKA Moscow Ativo 123 / 121 40% 1 03.04.2027 -
Mathys Tel Tottenham Ativo 138 / 156 40% 2 02.04.2027 -
Caleb Yirenkyi Coventry City Ativo 127 / 144 40% 1 02.04.2027 -
Matvey Kislyak CSKA Moscow Ativo 144 / 155 40% 3 31.03.2027 -
Jesús Rodríguez Como Ativo 152 / 151 40% 1 31.03.2027 -
Georginio Rutter Brighton Ativo 138 / 155 40% 1 22.03.2027 -
Josh Coburn Millwall Ativo 108 / 115 40% 1 22.03.2027 -
Chemsdine Talbi Sunderland Perdido 138 / 147 40% 3 18.03.2027 -
Mathias Kvistgaarden Norwich City Ativo 131 / 118 40% 1 17.03.2027 -
Cam Bragg West Ham United Ativo 114 / 124 40% 1 30.12.2026 -
Ezra Mayers West Ham United Ativo 104 / 132 40% 1 30.12.2026 -
David Ozoh Derby County Ativo 125 / 123 40% 1 19.12.2026 -
Lucas Bergvall Tottenham Ativo 149 / 152 40% 1 18.12.2026 -
Noah Sadiki Sunderland Ativo 139 / 153 40% 1 08.12.2026 -
Pedro Bravo FC Midtjylland Ativo 117 / 127 40% 2 15.11.2026 -
Cemran Dansin Orlando Pirates Ativo 106 / 121 40% 1 04.11.2026 -
Sergi Domínguez Dinamo Zagreb Ativo 107 / 139 40% 2 28.10.2026 -
Simphiwe Selepe Orlando Pirates Ativo 95 / 99 40% 1 21.10.2026 -
Nico O'Reilly Manchester City Ativo 151 / 166 40% 1 21.10.2026 -
Reuell Walters Luton Town Ativo 119 / 125 40% 1 18.10.2026 -
Yaimar Medina Racing Genk Ativo 122 / 123 40% 1 18.10.2026 -
Radek Vítek Middlesbrough Ativo 125 / 144 40% 1 22.09.2026 -
Anthony Patterson Wrexham Ativo 137 / 123 40% 1 22.09.2026 -
Itumeleng Grobler Free State Stars Ativo 109 / 98 40% 1 20.09.2026 -
Luciano Jachfe Nueva Chicago Ativo 104 / 109 40% 1 20.09.2026 -